createdAt,value
2023-05-20T00:00:50.751Z,933.7
2023-05-20T00:15:50.765Z,933.9
2023-05-20T00:30:55.974Z,933.7
2023-05-20T00:45:53.231Z,933.8
2023-05-20T01:00:53.494Z,934.1
2023-05-20T01:15:54.180Z,934.7
2023-05-20T01:30:57.779Z,934.7
2023-05-20T01:45:55.534Z,937
2023-05-20T02:00:57.215Z,937.2
2023-05-20T02:15:56.464Z,937.1
2023-05-20T02:30:57.545Z,937.2
2023-05-20T02:45:59.464Z,937
2023-05-20T03:00:59.908Z,937.4
2023-05-20T03:16:03.013Z,937.1
2023-05-20T03:31:03.926Z,936.6
2023-05-20T03:37:18.946Z,936.9
2023-05-20T03:52:19.595Z,936.3
2023-05-20T04:07:19.984Z,936.8
2023-05-20T04:22:20.433Z,936.5
2023-05-20T04:37:20.865Z,936.8
2023-05-20T04:52:22.814Z,936.6
2023-05-20T05:07:22.376Z,935.8
2023-05-20T05:22:22.646Z,935.9
2023-05-20T05:37:23.220Z,936
2023-05-20T05:52:25.021Z,935.7
2023-05-20T06:07:27.572Z,935.7
2023-05-20T06:22:25.634Z,935.4
2023-05-20T06:37:25.760Z,934.8
2023-05-20T06:52:26.689Z,933.3
2023-05-20T07:07:28.256Z,933.1
2023-05-20T07:22:29.148Z,932.7
2023-05-20T07:37:29.673Z,932.4
2023-05-20T07:52:57.285Z,932.4
2023-05-20T08:07:30.105Z,931.7
2023-05-20T08:22:42.297Z,931.7
2023-05-20T08:37:31.485Z,931.3
2023-05-20T08:52:32.367Z,931.1
2023-05-20T09:07:32.628Z,931
2023-05-20T09:22:37.336Z,931
2023-05-20T09:37:34.071Z,930.9
2023-05-20T09:52:34.940Z,930.8
2023-05-20T10:07:43.153Z,930.6
2023-05-20T10:22:35.406Z,930.5
2023-05-20T10:37:36.369Z,930.4
2023-05-20T10:52:37.335Z,930.3
2023-05-20T11:22:39.993Z,929.9
2023-05-20T11:37:39.230Z,929.9
2023-05-20T11:52:40.729Z,929.9
2023-05-20T12:07:44.366Z,929.9
2023-05-20T12:22:41.420Z,929.6
2023-05-20T12:37:43.069Z,929.6
2023-05-20T12:52:43.265Z,929.5
2023-05-20T13:07:44.164Z,929.3
2023-05-20T13:22:44.111Z,929.3
2023-05-20T13:37:44.140Z,929.1
2023-05-20T13:52:45.144Z,929
2023-05-20T14:07:45.257Z,928.7
2023-05-20T14:22:46.410Z,928.6
2023-05-20T14:37:56.218Z,928.6
2023-05-20T14:52:49.180Z,928.6
2023-05-20T15:07:48.348Z,928.5
2023-05-20T15:22:48.892Z,928.6
2023-05-20T15:37:50.151Z,928.4
2023-05-20T15:52:50.902Z,928.5
2023-05-20T16:07:50.532Z,928.5
2023-05-20T16:22:50.779Z,928.4
2023-05-20T16:37:52.097Z,928.5
2023-05-20T16:52:52.988Z,928.6
2023-05-20T17:07:53.387Z,928.5
2023-05-20T17:22:53.927Z,928.5
2023-05-20T17:37:54.763Z,928.6
2023-05-20T17:52:57.958Z,928.6
2023-05-20T18:07:57.411Z,928.8
2023-05-20T18:22:56.536Z,928.9
2023-05-20T18:37:58.168Z,928.9
2023-05-20T18:52:58.892Z,928.9
2023-05-20T19:07:59.436Z,929.1
2023-05-20T19:22:59.400Z,929.5
2023-05-20T19:37:59.597Z,929.7
2023-05-20T19:53:02.792Z,929.7
2023-05-20T20:08:01.483Z,930.4
2023-05-20T20:23:01.432Z,930.4
2023-05-20T20:38:02.438Z,930.4
2023-05-20T20:53:04.449Z,930.6
2023-05-20T21:08:05.422Z,930.5
2023-05-20T21:23:05.323Z,930.5
2023-05-20T21:38:05.314Z,930.4
2023-05-20T21:53:05.273Z,930.5
2023-05-20T22:00:39.655Z,930.5
2023-05-20T22:15:38.606Z,930.4
2023-05-20T22:30:37.796Z,931.7
2023-05-20T22:45:40.137Z,932.3
2023-05-20T23:00:38.737Z,932
2023-05-20T23:15:39.337Z,931.8
2023-05-20T23:30:40.401Z,932.1
2023-05-20T23:45:40.226Z,932.6
